Time;durP1;ratioP1;P1;durP2;ratioP2;P2;SDS_P1;SDS_P2;PMS_P1;PMS_P2;Temp;Humidity;BMP_temperature;BMP_pressure;BME280_temperature;BME280_humidity;BME280_pressure;Samples;Min_cycle;Max_cycle;Signal;HPM_P1;HPM_P2
2021/11/26 00:01:31;;;;;;;6.30;5.70;;;;;;;20.66;50.23;96494.38;5019682;28;20207;-82
2021/11/26 00:03:59;;;;;;;6.67;6.00;;;;;;;20.07;49.87;96381.94;5035421;28;20237;-76
2021/11/26 00:06:27;;;;;;;6.57;5.77;;;;;;;20.66;50.05;96479.06;5036196;28;20229;-81
2021/11/26 00:08:54;;;;;;;6.30;5.70;;;;;;;20.67;49.93;96470.59;5016357;28;20216;-81
2021/11/26 00:11:20;;;;;;;6.20;5.60;;;;;;;20.67;50.07;96468.03;5004741;28;20229;-81
2021/11/26 00:13:53;;;;;;;6.20;5.60;;;;;;;19.03;50.39;96176.19;5031679;28;20228;-81
2021/11/26 00:16:27;;;;;;;5.60;4.97;;;;;;;20.68;49.79;96459.53;5018581;28;20245;-81
2021/11/26 00:18:58;;;;;;;6.60;5.93;;;;;;;20.68;50.21;96464.66;5052586;28;20274;-79
2021/11/26 00:21:25;;;;;;;7.10;5.80;;;;;;;19.84;49.70;96315.25;5034228;28;20735;-81
2021/11/26 00:23:51;;;;;;;6.70;6.00;;;;;;;20.69;49.90;96462.97;5031620;28;20201;-80
2021/11/26 00:26:18;;;;;;;6.20;5.60;;;;;;;20.52;50.08;96447.34;5049810;28;20228;-82
2021/11/26 00:28:44;;;;;;;6.63;5.93;;;;;;;20.70;49.85;96470.66;4992275;28;20226;-80
2021/11/26 00:31:11;;;;;;;6.67;5.97;;;;;;;20.37;49.88;96413.09;5046442;28;20235;-81
2021/11/26 00:33:40;;;;;;;6.40;5.70;;;;;;;20.70;50.37;96473.19;5034713;28;20200;-81
2021/11/26 00:36:07;;;;;;;6.63;5.93;;;;;;;20.72;50.08;96475.78;5011197;28;20249;-81
2021/11/26 00:38:33;;;;;;;7.33;6.50;;;;;;;20.32;49.95;96405.34;5050209;28;20252;-81
2021/11/26 00:41:02;;;;;;;6.27;5.63;;;;;;;20.72;49.70;96456.19;5052928;28;20224;-81
2021/11/26 00:43:30;;;;;;;6.30;5.67;;;;;;;20.72;50.06;96465.56;5033501;28;20197;-80
2021/11/26 00:45:56;;;;;;;6.23;5.60;;;;;;;20.59;49.82;96438.97;5028863;28;20198;-81
2021/11/26 00:48:23;;;;;;;6.90;6.03;;;;;;;20.72;50.03;96455.34;5030426;28;20228;-81
2021/11/26 00:50:50;;;;;;;7.87;6.83;;;;;;;20.30;50.09;96386.59;5031399;28;20244;-81
2021/11/26 00:53:17;;;;;;;6.80;6.10;;;;;;;20.73;49.81;96459.59;5025916;28;20404;-80
2021/11/26 00:55:43;;;;;;;6.23;5.60;;;;;;;20.73;49.82;96449.41;5024349;28;20717;-81
2021/11/26 00:58:10;;;;;;;6.57;5.87;;;;;;;20.73;49.71;96442.59;5041664;28;20594;-81
2021/11/26 01:00:37;;;;;;;6.30;5.43;;;;;;;20.74;49.89;96438.34;5032241;28;20604;-79
2021/11/26 01:03:04;;;;;;;7.33;6.03;;;;;;;19.72;49.52;96274.25;5049406;28;20205;-81
2021/11/26 01:05:31;;;;;;;6.57;5.90;;;;;;;19.49;49.85;96228.00;5018972;28;20217;-82
2021/11/26 01:07:57;;;;;;;6.20;5.60;;;;;;;18.23;49.80;96023.78;5015325;28;20229;-81
2021/11/26 01:10:24;;;;;;;8.00;6.20;;;;;;;20.55;49.79;96380.19;5049614;28;20243;-81
2021/11/26 01:12:51;;;;;;;7.93;6.50;;;;;;;20.75;49.88;96419.66;5009423;28;20198;-81
2021/11/26 01:15:22;;;;;;;6.40;5.80;;;;;;;20.74;49.88;96426.44;5030953;28;20659;-81
2021/11/26 01:17:49;;;;;;;6.77;6.07;;;;;;;20.75;49.88;96424.75;5025524;28;20229;-81
2021/11/26 01:20:19;;;;;;;7.20;6.50;;;;;;;20.74;50.28;96431.53;5041769;28;20706;-81
2021/11/26 01:22:45;;;;;;;6.73;6.00;;;;;;;20.75;49.85;96414.53;5034535;28;20263;-80
2021/11/26 01:25:12;;;;;;;6.20;5.60;;;;;;;20.25;49.84;96323.59;5033489;28;20657;-81
2021/11/26 01:27:39;;;;;;;5.97;5.37;;;;;;;20.75;49.58;96424.75;5028233;28;20216;-80
2021/11/26 01:30:15;;;;;;;6.67;5.93;;;;;;;20.75;49.87;96409.44;5051479;28;20247;-82
2021/11/26 01:32:42;;;;;;;6.80;5.60;;;;;;;20.73;49.81;96406.00;5034206;28;20663;-81
2021/11/26 01:35:08;;;;;;;6.63;5.77;;;;;;;20.30;49.81;96337.25;5046606;28;20563;-82
2021/11/26 01:37:35;;;;;;;6.63;5.93;;;;;;;20.49;49.83;96375.00;5031726;28;20340;-80
2021/11/26 01:40:03;;;;;;;5.87;5.27;;;;;;;20.40;50.23;96349.34;5034535;28;20224;-81
2021/11/26 01:42:29;;;;;;;6.80;6.10;;;;;;;20.70;49.90;96398.28;5017008;28;20275;-81
2021/11/26 01:44:56;;;;;;;6.30;5.70;;;;;;;20.08;50.12;96299.47;5051330;28;20236;-81
2021/11/26 01:47:22;;;;;;;6.83;5.70;;;;;;;20.67;50.10;96395.69;5031875;28;20221;-80
2021/11/26 01:49:49;;;;;;;7.57;5.97;;;;;;;19.36;49.84;96172.59;5034708;28;20670;-81
2021/11/26 01:52:16;;;;;;;6.67;5.90;;;;;;;20.00;49.87;96278.97;5017227;28;20200;-81
2021/11/26 01:54:42;;;;;;;6.17;5.57;;;;;;;20.64;50.07;96385.44;5016371;28;20197;-82
2021/11/26 01:57:09;;;;;;;6.33;5.73;;;;;;;17.79;50.00;95911.09;5026148;28;20666;-80
2021/11/26 01:59:36;;;;;;;6.47;5.53;;;;;;;20.63;50.11;96368.41;5031207;28;20193;-80
2021/11/26 02:02:03;;;;;;;5.90;5.30;;;;;;;20.42;50.22;96330.66;5025400;28;20671;-81
2021/11/26 02:04:30;;;;;;;5.90;5.30;;;;;;;19.07;50.18;96101.59;5027946;28;20285;-81
2021/11/26 02:06:56;;;;;;;6.90;6.20;;;;;;;20.06;49.87;96265.44;5026087;28;20240;-79
2021/11/26 02:09:23;;;;;;;6.00;5.40;;;;;;;20.17;50.49;96279.25;5020062;28;20241;-82
2021/11/26 02:11:49;;;;;;;6.23;5.60;;;;;;;19.05;50.48;96116.00;5038619;28;20228;-81
2021/11/26 02:14:16;;;;;;;6.07;5.37;;;;;;;20.62;49.83;96349.69;5003441;28;20251;-81
2021/11/26 02:16:44;;;;;;;6.50;5.60;;;;;;;20.09;50.11;96255.28;5025755;28;20217;-81
2021/11/26 02:19:12;;;;;;;6.03;5.50;;;;;;;20.64;50.10;96345.47;5024389;28;20264;-81
2021/11/26 02:21:39;;;;;;;6.40;5.80;;;;;;;20.65;50.19;96347.16;5022646;28;20292;-81
2021/11/26 02:24:06;;;;;;;6.80;6.10;;;;;;;18.36;49.80;95955.34;5049225;28;20193;-80
2021/11/26 02:26:41;;;;;;;5.97;5.37;;;;;;;19.50;50.04;96138.00;5014195;28;20225;-81
2021/11/26 02:29:09;;;;;;;6.10;5.37;;;;;;;18.97;50.23;96038.63;5009021;28;20736;-81
2021/11/26 02:31:36;;;;;;;6.80;5.93;;;;;;;20.51;50.05;96291.63;5004330;28;20650;-79
2021/11/26 02:34:03;;;;;;;6.27;5.67;;;;;;;20.71;50.00;96324.28;5019675;28;20224;-81
2021/11/26 02:36:29;;;;;;;6.63;5.93;;;;;;;20.73;50.03;96329.41;5024654;28;20311;-81
2021/11/26 02:38:56;;;;;;;6.60;5.90;;;;;;;20.74;50.02;96318.34;5037248;28;20280;-81
2021/11/26 02:41:22;;;;;;;6.77;5.60;;;;;;;19.41;49.95;96109.84;5023479;28;20205;-81
2021/11/26 02:43:49;;;;;;;6.77;5.87;;;;;;;20.16;50.02;96216.34;5005411;23;20259;-82
2021/11/26 02:46:18;;;;;;;6.20;5.60;;;;;;;20.41;50.09;96252.41;4989624;28;20224;-82
2021/11/26 02:48:45;;;;;;;6.80;6.10;;;;;;;20.55;50.18;96286.63;5012369;28;20256;-83
2021/11/26 02:51:12;;;;;;;6.20;5.60;;;;;;;20.19;49.85;96204.47;4992930;28;20552;-82
2021/11/26 02:53:39;;;;;;;6.17;5.57;;;;;;;20.26;49.84;96219.03;5018624;28;20221;-81
2021/11/26 02:56:06;;;;;;;6.40;5.63;;;;;;;19.28;49.94;96044.28;5009485;28;20241;-83
2021/11/26 02:58:32;;;;;;;6.60;5.90;;;;;;;19.48;49.86;96075.97;5011930;28;20236;-83
2021/11/26 03:00:59;;;;;;;6.77;6.07;;;;;;;20.64;50.23;96281.66;5011485;28;20229;-82
2021/11/26 03:03:26;;;;;;;6.27;5.67;;;;;;;19.21;49.78;96044.97;4991481;28;20243;-83
2021/11/26 03:05:58;;;;;;;7.40;6.60;;;;;;;19.56;49.60;96076.06;5016186;28;20663;-82
2021/11/26 03:08:24;;;;;;;5.87;5.27;;;;;;;19.88;49.86;96134.31;4994861;28;20273;-83
2021/11/26 03:10:51;;;;;;;6.63;5.90;;;;;;;20.50;49.59;96241.44;5012452;28;20202;-83
2021/11/26 03:13:18;;;;;;;6.30;5.63;;;;;;;20.01;49.91;96153.16;5000331;28;20253;-81
2021/11/26 03:15:44;;;;;;;6.67;5.97;;;;;;;20.86;49.75;96290.41;5005443;28;20229;-85
2021/11/26 03:18:16;;;;;;;6.53;5.80;;;;;;;20.41;49.89;96215.81;5013433;28;20252;-83
2021/11/26 03:20:43;;;;;;;6.20;5.57;;;;;;;19.95;49.76;96131.00;5012488;28;20643;-83
2021/11/26 03:23:10;;;;;;;6.30;5.70;;;;;;;18.88;49.70;95954.50;4997047;28;20249;-80
2021/11/26 03:25:37;;;;;;;6.50;5.90;;;;;;;19.55;49.77;96061.63;5006174;28;20205;-82
2021/11/26 03:28:04;;;;;;;6.07;5.40;;;;;;;18.71;49.74;95921.16;4997024;28;20195;-83
2021/11/26 03:30:30;;;;;;;6.43;5.77;;;;;;;20.54;49.18;96236.41;5013763;28;20285;-83
2021/11/26 03:32:57;;;;;;;7.57;6.17;;;;;;;20.88;49.40;96294.72;5010813;28;20267;-82
2021/11/26 03:35:23;;;;;;;6.83;5.83;;;;;;;19.92;49.61;96127.56;5007605;28;20233;-86
2021/11/26 03:37:50;;;;;;;6.07;5.47;;;;;;;19.32;49.44;96023.09;5020746;28;20250;-82
2021/11/26 03:40:19;;;;;;;6.67;5.97;;;;;;;20.89;49.84;96277.69;4990448;28;20205;-86
2021/11/26 03:42:45;;;;;;;6.47;5.87;;;;;;;19.48;49.38;96034.38;5022765;28;20226;-82
2021/11/26 03:45:12;;;;;;;6.87;6.03;;;;;;;20.05;49.22;96129.44;4999497;28;20197;-85
2021/11/26 03:47:39;;;;;;;6.87;5.90;;;;;;;20.68;49.50;96234.88;4979636;28;20197;-84
2021/11/26 03:50:06;;;;;;;7.23;6.20;;;;;;;19.34;49.58;95990.00;4996971;28;20210;-84
2021/11/26 03:52:33;;;;;;;6.30;5.70;;;;;;;20.53;49.97;96187.91;5002239;28;20217;-83
2021/11/26 03:55:00;;;;;;;6.37;5.77;;;;;;;20.68;49.58;96213.59;5025041;28;20679;-82
2021/11/26 03:57:26;;;;;;;6.73;6.00;;;;;;;19.01;49.43;95923.31;5007915;28;20257;-82
2021/11/26 03:59:53;;;;;;;6.60;5.90;;;;;;;20.52;49.13;96178.53;4996499;28;20194;-85
2021/11/26 04:02:20;;;;;;;6.63;5.80;;;;;;;20.71;49.64;96211.09;5025066;28;20309;-82
2021/11/26 04:04:46;;;;;;;6.90;6.20;;;;;;;20.72;49.67;96207.72;4994790;28;20229;-82
2021/11/26 04:07:13;;;;;;;6.97;6.23;;;;;;;20.90;49.39;96243.66;5007882;28;20230;-82
2021/11/26 04:09:40;;;;;;;6.77;6.07;;;;;;;20.37;49.47;96161.31;5009239;28;20198;-82
2021/11/26 04:12:09;;;;;;;7.23;5.63;;;;;;;20.32;49.40;96144.25;5011026;28;20198;-83
2021/11/26 04:14:39;;;;;;;7.43;6.27;;;;;;;20.14;49.47;96111.75;4998745;28;20204;-83
2021/11/26 04:17:09;;;;;;;7.20;6.30;;;;;;;20.13;49.48;96116.81;4991411;28;20214;-86
2021/11/26 04:19:38;;;;;;;6.67;6.00;;;;;;;19.68;49.24;96046.53;4993079;28;20201;-82
2021/11/26 04:22:04;;;;;;;6.63;5.57;;;;;;;19.63;49.60;96021.81;5000885;28;20206;-84
2021/11/26 04:24:31;;;;;;;6.60;5.90;;;;;;;20.27;49.53;96133.13;5024323;28;20233;-82
2021/11/26 04:26:58;;;;;;;6.87;5.80;;;;;;;20.91;49.28;96236.03;5000358;28;20252;-82
2021/11/26 04:29:24;;;;;;;6.67;5.60;;;;;;;20.35;49.46;96142.63;5013744;28;20244;-82
2021/11/26 04:31:51;;;;;;;6.57;5.87;;;;;;;20.24;49.43;96112.69;5006589;28;20248;-85
2021/11/26 04:34:17;;;;;;;6.57;5.87;;;;;;;20.47;49.45;96158.06;5005015;28;20244;-82
2021/11/26 04:36:44;;;;;;;7.13;5.90;;;;;;;19.51;49.36;95991.09;5017151;28;20814;-81
2021/11/26 04:39:11;;;;;;;8.13;6.63;;;;;;;20.58;49.68;96161.63;5012528;28;20198;-83
2021/11/26 04:41:37;;;;;;;6.67;6.07;;;;;;;20.58;49.32;96160.75;5012877;28;20232;-82
2021/11/26 04:44:04;;;;;;;6.80;6.10;;;;;;;20.25;49.51;96104.22;5001616;28;20261;-85
2021/11/26 04:46:30;;;;;;;6.97;6.03;;;;;;;20.61;49.40;96169.31;4992135;28;20213;-83
2021/11/26 04:48:57;;;;;;;7.20;5.90;;;;;;;20.72;49.30;96171.97;4999501;28;20286;-82
2021/11/26 04:51:26;;;;;;;6.97;6.27;;;;;;;20.26;49.51;96093.16;5015781;28;20217;-82
2021/11/26 04:53:52;;;;;;;6.63;5.93;;;;;;;19.90;49.35;96040.00;4999630;28;20682;-83
2021/11/26 04:56:19;;;;;;;7.27;6.33;;;;;;;19.98;49.42;96037.56;4994050;28;20202;-85
2021/11/26 04:58:45;;;;;;;7.07;6.37;;;;;;;20.90;49.13;96198.53;5029470;28;20643;-82
2021/11/26 05:01:12;;;;;;;6.77;6.07;;;;;;;20.20;49.42;96076.09;5001917;28;20201;-81
2021/11/26 05:03:39;;;;;;;6.70;6.00;;;;;;;20.17;49.26;96070.97;5001437;28;20218;-86
2021/11/26 05:06:05;;;;;;;6.57;5.83;;;;;;;20.24;49.49;96085.50;5034285;28;20240;-83
2021/11/26 05:08:32;;;;;;;7.00;6.23;;;;;;;20.59;49.51;96140.34;5031348;28;20201;-83
2021/11/26 05:10:59;;;;;;;7.50;6.70;;;;;;;20.19;49.51;96076.09;5001267;28;20213;-87
2021/11/26 05:13:28;;;;;;;6.90;5.57;;;;;;;20.34;49.59;96102.59;4999431;28;20225;-85
2021/11/26 05:15:57;;;;;;;7.33;6.57;;;;;;;20.69;49.29;96157.47;5018096;28;20229;-82
2021/11/26 05:18:26;;;;;;;8.13;5.80;;;;;;;20.72;49.21;96162.59;5000738;28;20245;-81
2021/11/26 05:20:53;;;;;;;8.30;7.03;;;;;;;20.45;49.47;96095.06;5011622;28;20644;-83
2021/11/26 05:23:20;;;;;;;7.63;6.47;;;;;;;20.43;49.34;96106.97;4997527;28;20526;-80
2021/11/26 05:25:47;;;;;;;7.57;6.63;;;;;;;20.71;49.14;96149.81;5004385;28;20198;-81
2021/11/26 05:28:13;;;;;;;8.23;6.70;;;;;;;20.94;49.16;96191.78;5016963;28;20225;-83
2021/11/26 05:30:40;;;;;;;6.93;6.23;;;;;;;20.22;49.40;96079.50;5015216;28;20202;-82
2021/11/26 05:33:07;;;;;;;7.37;6.53;;;;;;;19.65;49.38;95971.72;5000677;28;20241;-86
2021/11/26 05:35:34;;;;;;;7.17;6.47;;;;;;;19.51;49.40;95935.88;5033232;28;20190;-83
2021/11/26 05:38:01;;;;;;;19.43;15.13;;;;;;;20.93;48.23;96172.19;5016974;28;20225;-83
2021/11/26 05:40:28;;;;;;;25.03;18.33;;;;;;;20.12;46.95;96044.50;5006107;28;20751;-82
2021/11/26 05:42:54;;;;;;;26.07;20.37;;;;;;;20.44;45.30;96085.72;5015691;28;20662;-83
2021/11/26 05:45:21;;;;;;;29.27;21.60;;;;;;;18.99;45.34;95853.69;5015480;28;20252;-82
2021/11/26 05:47:48;;;;;;;31.57;23.17;;;;;;;19.81;44.71;95989.75;4997665;28;20202;-85
2021/11/26 05:50:16;;;;;;;38.67;26.67;;;;;;;20.37;43.64;96089.88;4992765;28;20366;-84
2021/11/26 05:52:43;;;;;;;37.93;26.60;;;;;;;20.80;43.25;96157.56;5010348;28;20360;-84
2021/11/26 05:55:11;;;;;;;37.03;27.43;;;;;;;20.11;42.27;96044.50;5017945;28;20233;-84
2021/11/26 05:57:38;;;;;;;38.67;27.00;;;;;;;19.38;42.02;95911.09;5016732;28;20256;-85
2021/11/26 06:00:06;;;;;;;34.20;24.77;;;;;;;20.06;42.69;96038.47;4982922;28;20287;-85
2021/11/26 06:02:32;;;;;;;33.73;24.47;;;;;;;20.09;43.00;96036.84;5020600;28;20218;-84
2021/11/26 06:04:59;;;;;;;34.63;24.50;;;;;;;18.05;43.31;95686.22;5018718;28;20193;-85
2021/11/26 06:07:25;;;;;;;30.80;23.63;;;;;;;20.05;44.41;96027.44;5018340;28;20675;-83
2021/11/26 06:09:52;;;;;;;32.40;24.20;;;;;;;20.10;44.42;96033.44;5001405;28;20229;-84
2021/11/26 06:12:19;;;;;;;30.97;23.63;;;;;;;20.31;44.94;96069.41;5039601;28;20776;-84
2021/11/26 06:14:45;;;;;;;33.00;21.93;;;;;;;19.18;44.96;95878.53;5033899;28;20285;-84
2021/11/26 06:17:12;;;;;;;29.07;21.93;;;;;;;20.59;45.17;96112.25;5018522;28;20287;-83
2021/11/26 06:19:39;;;;;;;26.43;20.67;;;;;;;20.08;45.67;96024.94;5020456;28;20276;-83
2021/11/26 06:22:06;;;;;;;26.53;20.73;;;;;;;19.66;45.68;95943.69;5022849;28;20236;-88
2021/11/26 06:24:35;;;;;;;25.10;19.37;;;;;;;18.55;45.83;95747.94;4984816;28;20197;-84
2021/11/26 06:27:01;;;;;;;25.67;19.13;;;;;;;20.58;46.19;96130.13;5035527;28;20194;-84
2021/11/26 06:29:28;;;;;;;26.13;19.73;;;;;;;18.75;46.30;95798.25;5007249;28;20263;-88
2021/11/26 06:31:54;;;;;;;24.73;18.37;;;;;;;18.80;46.63;95834.78;5004171;28;20259;-86
2021/11/26 06:34:21;;;;;;;24.77;18.97;;;;;;;20.25;46.65;96028.53;5002027;28;20256;-84
2021/11/26 06:36:48;;;;;;;24.33;18.40;;;;;;;19.43;46.46;95889.09;4994727;28;20239;-82
2021/11/26 06:39:14;;;;;;;23.17;18.13;;;;;;;13.82;46.45;94943.94;5021026;28;20213;-87
2021/11/26 06:41:41;;;;;;;23.97;17.37;;;;;;;19.48;47.01;95889.16;5008728;28;20236;-85
2021/11/26 06:44:08;;;;;;;26.10;18.93;;;;;;;20.79;46.98;96113.34;5013591;28;20274;-84
2021/11/26 06:46:34;;;;;;;22.97;17.57;;;;;;;20.52;46.86;96069.63;5021047;28;20229;-84
2021/11/26 06:49:01;;;;;;;22.03;17.77;;;;;;;20.37;47.16;96045.69;5023043;28;20277;-83
2021/11/26 06:51:27;;;;;;;23.03;17.07;;;;;;;19.93;47.04;95973.75;5022382;28;20232;-84
2021/11/26 06:53:57;;;;;;;23.27;17.10;;;;;;;20.80;47.07;96122.69;5007280;28;20768;-83
2021/11/26 06:56:24;;;;;;;20.57;16.77;;;;;;;20.58;47.18;96079.06;4990960;28;20535;-85
2021/11/26 06:58:52;;;;;;;20.73;16.50;;;;;;;20.36;47.46;96055.00;5008644;28;20210;-86
2021/11/26 07:01:19;;;;;;;21.20;16.30;;;;;;;20.37;47.18;96051.63;5011510;28;20201;-83
2021/11/26 07:03:46;;;;;;;21.23;16.37;;;;;;;20.22;47.40;96025.09;5001467;28;20222;-82
2021/11/26 07:06:12;;;;;;;20.37;16.20;;;;;;;20.69;47.78;96095.34;5009382;28;20255;-85
2021/11/26 07:08:39;;;;;;;20.67;15.20;;;;;;;20.60;47.74;96074.84;5008526;28;20250;-84
2021/11/26 07:11:05;;;;;;;21.43;15.57;;;;;;;20.49;47.12;96049.19;4997503;28;20229;-84
2021/11/26 07:13:32;;;;;;;36.80;16.77;;;;;;;20.13;47.88;95985.03;5015310;28;20249;-88
2021/11/26 07:15:59;;;;;;;21.23;15.00;;;;;;;20.24;47.76;96006.41;4999698;28;20233;-85
2021/11/26 07:18:25;;;;;;;19.57;14.97;;;;;;;20.29;48.03;96003.91;5009916;28;20668;-83
2021/11/26 07:20:52;;;;;;;22.50;15.33;;;;;;;20.17;47.97;95984.25;4994916;28;20206;-82
2021/11/26 07:23:18;;;;;;;19.63;14.80;;;;;;;20.48;47.65;96033.88;4997986;28;20221;-83
2021/11/26 07:25:45;;;;;;;21.87;14.93;;;;;;;20.17;47.83;95993.59;4998300;28;20234;-81
2021/11/26 07:28:11;;;;;;;20.37;15.30;;;;;;;20.66;48.02;96054.50;5016929;28;20233;-85
2021/11/26 07:30:41;;;;;;;22.17;15.03;;;;;;;19.99;47.87;95949.16;5016489;28;20236;-84
2021/11/26 07:33:08;;;;;;;20.63;14.87;;;;;;;19.68;47.82;95893.63;5001272;28;20665;-82
2021/11/26 07:35:34;;;;;;;18.47;15.03;;;;;;;20.38;47.68;96006.56;4992279;28;20237;-83
2021/11/26 07:38:01;;;;;;;18.07;14.67;;;;;;;20.50;48.01;96017.75;5004377;28;20718;-83
2021/11/26 07:40:27;;;;;;;19.13;14.27;;;;;;;19.92;47.74;95915.94;4991449;28;20227;-85
2021/11/26 07:42:54;;;;;;;19.37;14.27;;;;;;;19.66;47.84;95874.91;4993173;28;20312;-85
2021/11/26 07:45:20;;;;;;;18.63;14.03;;;;;;;20.07;47.97;95948.41;5015154;28;20205;-85
2021/11/26 07:47:47;;;;;;;17.60;13.97;;;;;;;19.91;47.98;95906.59;4999256;28;20190;-83
2021/11/26 07:50:14;;;;;;;17.10;13.17;;;;;;;19.98;47.82;95924.53;5001982;28;20230;-82
2021/11/26 07:52:41;;;;;;;15.83;12.43;;;;;;;20.49;47.90;96002.44;5011892;28;20222;-86
2021/11/26 07:55:08;;;;;;;19.40;13.80;;;;;;;18.73;48.07;95718.50;5002690;28;20264;-84
2021/11/26 07:57:36;;;;;;;15.77;13.00;;;;;;;19.69;47.92;95871.53;4998322;28;20236;-83
2021/11/26 08:00:04;;;;;;;17.03;13.10;;;;;;;20.68;48.11;96042.56;4995235;28;20225;-85
2021/11/26 08:02:31;;;;;;;14.87;12.20;;;;;;;19.97;47.91;95916.84;5011896;28;20213;-85
2021/11/26 08:04:57;;;;;;;15.63;12.23;;;;;;;20.89;47.83;96076.81;5010050;28;20225;-83
2021/11/26 08:07:24;;;;;;;15.70;12.87;;;;;;;20.89;48.03;96064.06;5014169;28;20229;-85
2021/11/26 08:09:50;;;;;;;14.73;11.83;;;;;;;20.37;48.09;95987.84;5017541;28;20247;-84
2021/11/26 08:12:17;;;;;;;16.53;11.97;;;;;;;20.43;47.91;95987.88;5004625;28;20272;-82
2021/11/26 08:14:44;;;;;;;15.97;12.63;;;;;;;20.26;48.12;95963.94;5016723;28;20236;-82
2021/11/26 08:17:10;;;;;;;14.30;11.50;;;;;;;20.42;47.65;95981.09;4999182;28;20682;-82
2021/11/26 08:19:38;;;;;;;17.60;12.50;;;;;;;19.47;48.23;95823.72;5017024;28;20217;-84
2021/11/26 08:22:04;;;;;;;15.30;12.07;;;;;;;19.62;48.39;95849.38;5005979;28;20237;-83
2021/11/26 08:24:31;;;;;;;18.07;11.50;;;;;;;20.31;48.14;95974.19;5034530;28;20229;-82
2021/11/26 08:26:57;;;;;;;15.23;11.60;;;;;;;20.32;47.90;95964.00;5007335;28;20201;-83
2021/11/26 08:29:27;;;;;;;16.70;11.87;;;;;;;20.15;48.14;95934.91;4992903;28;20225;-83
2021/11/26 08:31:54;;;;;;;13.23;11.03;;;;;;;19.67;47.97;95846.03;5035162;28;20261;-79
2021/11/26 08:34:21;;;;;;;14.67;11.63;;;;;;;20.44;47.72;95969.22;5000364;28;20233;-83
2021/11/26 08:36:48;;;;;;;14.10;11.57;;;;;;;20.43;48.09;95966.66;5000682;28;20225;-84
2021/11/26 08:39:14;;;;;;;13.50;10.83;;;;;;;20.18;48.08;95927.28;5029487;28;20225;-82
2021/11/26 08:41:41;;;;;;;14.07;11.13;;;;;;;20.09;48.39;95911.88;5015469;28;20197;-83
2021/11/26 08:44:08;;;;;;;16.03;11.50;;;;;;;19.98;48.13;95903.25;5000651;28;20226;-82
2021/11/26 08:46:35;;;;;;;13.50;10.90;;;;;;;18.98;48.30;95715.38;5000171;28;20206;-83
2021/11/26 08:49:01;;;;;;;14.33;11.50;;;;;;;20.29;48.30;95961.41;4988256;28;20218;-80
2021/11/26 08:51:33;;;;;;;14.10;11.00;;;;;;;20.12;48.18;95909.34;5009228;28;20202;-83
2021/11/26 08:54:00;;;;;;;14.83;12.03;;;;;;;20.40;48.38;95953.84;5002558;28;20257;-83
2021/11/26 08:56:26;;;;;;;14.97;11.13;;;;;;;19.64;48.26;95818.00;5015729;28;20249;-83
2021/11/26 08:58:53;;;;;;;13.40;10.57;;;;;;;20.29;48.22;95919.75;4984458;28;20257;-85
2021/11/26 09:01:22;;;;;;;12.40;10.60;;;;;;;20.69;48.31;95988.97;5009149;28;20221;-84
2021/11/26 09:03:49;;;;;;;14.03;11.27;;;;;;;19.94;48.13;95864.16;5007595;28;20222;-82
2021/11/26 09:06:17;;;;;;;13.57;10.93;;;;;;;20.46;48.50;95943.72;4994812;28;20279;-83
2021/11/26 09:08:43;;;;;;;13.83;10.80;;;;;;;20.69;48.80;95977.94;5004921;28;20282;-83
2021/11/26 09:11:10;;;;;;;13.83;10.93;;;;;;;19.85;48.57;95825.84;5017276;28;20228;-85
2021/11/26 09:13:36;;;;;;;11.43;10.10;;;;;;;20.29;48.33;95905.31;5000444;28;20256;-84
2021/11/26 09:16:03;;;;;;;13.07;10.57;;;;;;;20.63;48.49;95953.19;5036068;28;20259;-84
2021/11/26 09:18:30;;;;;;;14.13;10.30;;;;;;;20.42;48.34;95934.28;5004026;28;20224;-83
2021/11/26 09:20:58;;;;;;;14.23;10.50;;;;;;;20.51;48.40;95939.47;5016697;28;20230;-85
2021/11/26 09:23:25;;;;;;;13.73;10.93;;;;;;;20.67;48.44;95975.38;5012225;28;20283;-84
2021/11/26 09:25:52;;;;;;;14.30;10.93;;;;;;;20.29;48.22;95904.44;4996872;28;20636;-82
2021/11/26 09:28:19;;;;;;;13.17;10.37;;;;;;;20.67;48.54;95985.59;5006992;28;20205;-84
2021/11/26 09:30:48;;;;;;;12.37;10.37;;;;;;;19.74;48.38;95818.91;5013383;28;20257;-85
2021/11/26 09:33:15;;;;;;;14.13;10.97;;;;;;;20.31;48.54;95916.34;5007922;28;20253;-82
2021/11/26 09:35:42;;;;;;;13.10;10.40;;;;;;;19.37;48.33;95756.59;4996077;28;20248;-81
2021/11/26 09:38:08;;;;;;;11.80;9.77;;;;;;;20.26;48.24;95901.84;5004916;28;20265;-81
2021/11/26 09:40:35;;;;;;;12.27;10.13;;;;;;;20.89;48.29;96020.66;4996053;28;20230;-82
2021/11/26 09:43:02;;;;;;;13.57;10.17;;;;;;;20.32;48.61;95917.22;5032449;28;20876;-82
2021/11/26 09:45:31;;;;;;;12.77;10.10;;;;;;;19.89;48.52;95842.00;5010710;28;20211;-83
2021/11/26 09:47:58;;;;;;;12.73;9.50;;;;;;;20.29;48.44;95912.94;5017616;28;20186;-83
2021/11/26 09:50:26;;;;;;;12.83;10.37;;;;;;;20.09;48.45;95862.56;4995121;28;20280;-84
2021/11/26 09:52:57;;;;;;;12.90;10.23;;;;;;;20.59;48.55;95940.41;4999411;28;20221;-82
2021/11/26 09:55:25;;;;;;;12.67;9.93;;;;;;;19.24;48.38;95713.94;5016472;28;20194;-80
2021/11/26 09:57:56;;;;;;;12.27;9.87;;;;;;;19.68;48.61;95781.50;5033587;28;20224;-83
2021/11/26 10:00:24;;;;;;;11.97;9.67;;;;;;;20.12;48.50;95858.34;5015412;28;20194;-84
2021/11/26 10:02:52;;;;;;;12.60;9.97;;;;;;;20.17;48.21;95876.28;5017535;28;20850;-84
2021/11/26 10:05:19;;;;;;;12.63;10.07;;;;;;;20.08;48.49;95833.66;5001935;28;20245;-82
2021/11/26 10:07:50;;;;;;;11.23;9.00;;;;;;;20.16;48.47;95833.78;5000379;28;20193;-86
2021/11/26 10:10:22;;;;;;;10.60;9.30;;;;;;;19.54;48.44;95715.97;4996133;28;20237;-83
2021/11/26 10:13:01;;;;;;;12.70;9.80;;;;;;;19.64;48.44;95731.34;5011635;28;20764;-82
2021/11/26 10:15:41;;;;;;;11.87;9.17;;;;;;;20.49;48.64;95854.44;4997785;28;20202;-82
2021/11/26 10:18:16;;;;;;;10.80;9.00;;;;;;;19.35;48.39;95658.06;5001275;28;20607;-83
2021/11/26 10:21:16;;;;;;;11.07;9.63;;;;;;;20.44;48.66;95839.09;5015399;28;20202;-84
2021/11/26 10:23:45;;;;;;;10.83;9.20;;;;;;;19.63;48.50;95693.13;5031908;28;20244;-83
2021/11/26 10:26:12;;;;;;;12.47;9.97;;;;;;;18.40;48.49;95481.59;5035634;28;20201;-82
2021/11/26 10:28:44;;;;;;;11.50;9.67;;;;;;;17.94;48.29;95403.16;5031506;28;20225;-85
2021/11/26 10:31:22;;;;;;;10.30;9.20;;;;;;;19.30;48.51;95626.63;5031546;28;20205;-82
2021/11/26 10:34:00;;;;;;;11.13;9.33;;;;;;;17.94;48.38;95415.84;4998175;28;20229;-83
2021/11/26 10:36:27;;;;;;;12.30;9.60;;;;;;;18.65;48.58;95506.41;5019985;28;20220;-83
2021/11/26 10:38:54;;;;;;;11.77;9.50;;;;;;;19.28;48.67;95628.28;5018068;28;20241;-81
2021/11/26 10:41:30;;;;;;;11.97;9.27;;;;;;;20.88;48.65;95875.97;5014942;28;20205;-82
2021/11/26 10:44:08;;;;;;;11.20;9.27;;;;;;;17.77;48.47;95336.13;5011776;28;20226;-82
2021/11/26 10:59:50;;;;;;;13.17;9.30;;;;;;;17.72;48.63;95312.34;4996824;28;20226;-84
2021/11/26 11:02:25;;;;;;;10.77;9.03;;;;;;;18.98;48.60;95516.00;5001609;28;20277;-84
2021/11/26 11:04:52;;;;;;;10.67;8.77;;;;;;;16.98;48.69;95164.41;5017259;28;20208;-81
2021/11/26 11:07:19;;;;;;;10.23;8.90;;;;;;;15.84;48.65;94965.53;5034815;28;20202;-82
2021/11/26 11:09:53;;;;;;;12.13;8.67;;;;;;;18.30;48.28;95379.78;5013231;28;20209;-83
2021/11/26 11:12:29;;;;;;;11.37;9.00;;;;;;;17.96;48.77;95326.13;5001243;28;20225;-83
2021/11/26 11:14:58;;;;;;;13.87;9.17;;;;;;;20.89;48.65;95818.94;5000929;28;20190;-81
2021/11/26 11:17:28;;;;;;;10.23;8.57;;;;;;;14.58;48.36;94796.22;5003248;28;20573;-82
2021/11/26 11:19:57;;;;;;;10.67;8.63;;;;;;;16.66;48.57;95109.13;5002076;28;20209;-79
2021/11/26 11:22:30;;;;;;;13.27;8.03;;;;;;;19.59;48.58;95587.78;5003779;28;20251;-81
2021/11/26 11:24:56;;;;;;;10.67;8.90;;;;;;;19.95;48.70;95635.53;5019295;28;20272;-84
2021/11/26 11:27:23;;;;;;;10.73;8.97;;;;;;;19.64;48.57;95593.75;5036706;28;20201;-83
2021/11/26 11:29:50;;;;;;;10.53;8.27;;;;;;;20.27;48.70;95697.81;4999675;28;20201;-84
2021/11/26 11:32:18;;;;;;;10.40;8.57;;;;;;;19.82;48.67;95637.19;5035391;28;20225;-82
2021/11/26 11:34:45;;;;;;;12.27;10.43;;;;;;;20.44;48.46;95721.72;5014289;28;20202;-83
2021/11/26 11:37:17;;;;;;;13.97;10.63;;;;;;;19.93;48.17;95634.69;5002774;28;20201;-82
2021/11/26 11:39:50;;;;;;;16.17;13.40;;;;;;;20.48;47.60;95712.34;5001079;28;20209;-84
2021/11/26 11:42:37;;;;;;;16.40;13.20;;;;;;;20.25;47.36;95673.16;5018773;28;20237;-83